sensor_id;sensor_type;location;lat;lon;timestamp;P1;durP1;ratioP1;P2;durP2;ratioP2
59607;SDS011;45426;44.726;10.390;2023-04-03T00:00:05;3.92;;;2.15;;
59607;SDS011;45426;44.726;10.390;2023-04-03T00:02:31;5.65;;;2.05;;
59607;SDS011;45426;44.726;10.390;2023-04-03T00:04:57;4.60;;;2.42;;
59607;SDS011;45426;44.726;10.390;2023-04-03T00:07:23;5.35;;;1.95;;
59607;SDS011;45426;44.726;10.390;2023-04-03T00:09:48;3.00;;;2.00;;
59607;SDS011;45426;44.726;10.390;2023-04-03T00:12:13;3.60;;;1.92;;
59607;SDS011;45426;44.726;10.390;2023-04-03T00:14:40;3.33;;;2.10;;
59607;SDS011;45426;44.726;10.390;2023-04-03T00:17:06;4.88;;;2.22;;
59607;SDS011;45426;44.726;10.390;2023-04-03T00:19:31;4.35;;;1.92;;
59607;SDS011;45426;44.726;10.390;2023-04-03T00:21:57;3.45;;;1.80;;
59607;SDS011;45426;44.726;10.390;2023-04-03T00:24:22;4.80;;;1.98;;
59607;SDS011;45426;44.726;10.390;2023-04-03T00:26:48;3.58;;;2.10;;
59607;SDS011;45426;44.726;10.390;2023-04-03T00:29:13;4.32;;;2.03;;
59607;SDS011;45426;44.726;10.390;2023-04-03T00:31:39;4.43;;;2.25;;
59607;SDS011;45426;44.726;10.390;2023-04-03T00:34:05;3.65;;;1.95;;
59607;SDS011;45426;44.726;10.390;2023-04-03T00:36:30;4.22;;;2.00;;
59607;SDS011;45426;44.726;10.390;2023-04-03T00:38:56;3.92;;;1.98;;
59607;SDS011;45426;44.726;10.390;2023-04-03T00:41:21;2.97;;;1.98;;
59607;SDS011;45426;44.726;10.390;2023-04-03T00:43:47;3.97;;;2.10;;
59607;SDS011;45426;44.726;10.390;2023-04-03T00:46:12;4.88;;;2.30;;
59607;SDS011;45426;44.726;10.390;2023-04-03T00:48:44;4.82;;;2.42;;
59607;SDS011;45426;44.726;10.390;2023-04-03T00:51:22;2.97;;;2.10;;
59607;SDS011;45426;44.726;10.390;2023-04-03T00:53:50;4.60;;;2.30;;
59607;SDS011;45426;44.726;10.390;2023-04-03T00:56:23;5.07;;;2.30;;
59607;SDS011;45426;44.726;10.390;2023-04-03T00:58:53;4.85;;;2.63;;
59607;SDS011;45426;44.726;10.390;2023-04-03T01:01:22;3.63;;;2.10;;
59607;SDS011;45426;44.726;10.390;2023-04-03T01:03:50;3.47;;;2.13;;
59607;SDS011;45426;44.726;10.390;2023-04-03T01:06:17;3.88;;;2.33;;
59607;SDS011;45426;44.726;10.390;2023-04-03T01:08:47;3.28;;;2.10;;
59607;SDS011;45426;44.726;10.390;2023-04-03T01:11:15;4.85;;;2.35;;
59607;SDS011;45426;44.726;10.390;2023-04-03T01:13:40;4.95;;;2.30;;
59607;SDS011;45426;44.726;10.390;2023-04-03T01:16:06;3.55;;;2.20;;
59607;SDS011;45426;44.726;10.390;2023-04-03T01:18:32;3.45;;;2.35;;
59607;SDS011;45426;44.726;10.390;2023-04-03T01:26:30;4.13;;;2.20;;
59607;SDS011;45426;44.726;10.390;2023-04-03T01:28:58;3.72;;;2.30;;
59607;SDS011;45426;44.726;10.390;2023-04-03T01:31:31;3.38;;;2.30;;
59607;SDS011;45426;44.726;10.390;2023-04-03T01:34:04;5.45;;;2.70;;
59607;SDS011;45426;44.726;10.390;2023-04-03T01:36:30;3.40;;;2.53;;
59607;SDS011;45426;44.726;10.390;2023-04-03T01:38:56;5.10;;;2.38;;
59607;SDS011;45426;44.726;10.390;2023-04-03T01:41:24;3.42;;;2.30;;
59607;SDS011;45426;44.726;10.390;2023-04-03T01:43:50;3.85;;;2.28;;
59607;SDS011;45426;44.726;10.390;2023-04-03T01:46:16;6.15;;;2.47;;
59607;SDS011;45426;44.726;10.390;2023-04-03T01:48:43;4.68;;;2.42;;
59607;SDS011;45426;44.726;10.390;2023-04-03T01:51:08;4.30;;;2.55;;
59607;SDS011;45426;44.726;10.390;2023-04-03T01:53:33;4.45;;;2.17;;
59607;SDS011;45426;44.726;10.390;2023-04-03T01:55:59;3.42;;;2.30;;
59607;SDS011;45426;44.726;10.390;2023-04-03T01:58:24;4.78;;;2.47;;
59607;SDS011;45426;44.726;10.390;2023-04-03T02:00:50;4.75;;;2.40;;
59607;SDS011;45426;44.726;10.390;2023-04-03T02:03:16;3.13;;;2.10;;
59607;SDS011;45426;44.726;10.390;2023-04-03T02:05:42;3.78;;;2.40;;
59607;SDS011;45426;44.726;10.390;2023-04-03T02:08:07;4.28;;;2.47;;
59607;SDS011;45426;44.726;10.390;2023-04-03T02:10:32;5.07;;;2.40;;
59607;SDS011;45426;44.726;10.390;2023-04-03T02:12:58;4.57;;;2.38;;
59607;SDS011;45426;44.726;10.390;2023-04-03T02:15:23;4.85;;;2.60;;
59607;SDS011;45426;44.726;10.390;2023-04-03T02:17:49;4.82;;;2.40;;
59607;SDS011;45426;44.726;10.390;2023-04-03T02:20:15;3.50;;;2.40;;
59607;SDS011;45426;44.726;10.390;2023-04-03T02:22:40;4.38;;;2.63;;
59607;SDS011;45426;44.726;10.390;2023-04-03T02:25:06;3.80;;;2.28;;
59607;SDS011;45426;44.726;10.390;2023-04-03T02:27:31;6.70;;;3.30;;
59607;SDS011;45426;44.726;10.390;2023-04-03T02:29:57;4.32;;;2.58;;
59607;SDS011;45426;44.726;10.390;2023-04-03T02:32:22;7.10;;;2.47;;
59607;SDS011;45426;44.726;10.390;2023-04-03T02:34:48;3.85;;;2.35;;
59607;SDS011;45426;44.726;10.390;2023-04-03T02:37:13;6.88;;;2.80;;
59607;SDS011;45426;44.726;10.390;2023-04-03T02:39:39;5.82;;;2.58;;
59607;SDS011;45426;44.726;10.390;2023-04-03T02:42:05;5.00;;;2.70;;
59607;SDS011;45426;44.726;10.390;2023-04-03T02:44:30;4.47;;;2.38;;
59607;SDS011;45426;44.726;10.390;2023-04-03T02:46:55;4.25;;;2.60;;
59607;SDS011;45426;44.726;10.390;2023-04-03T02:49:21;3.72;;;2.30;;
59607;SDS011;45426;44.726;10.390;2023-04-03T02:51:46;5.63;;;2.63;;
59607;SDS011;45426;44.726;10.390;2023-04-03T02:54:12;4.38;;;2.50;;
59607;SDS011;45426;44.726;10.390;2023-04-03T02:56:38;4.72;;;2.22;;
59607;SDS011;45426;44.726;10.390;2023-04-03T02:59:03;4.90;;;2.65;;
59607;SDS011;45426;44.726;10.390;2023-04-03T03:01:30;6.28;;;3.38;;
59607;SDS011;45426;44.726;10.390;2023-04-03T03:03:57;4.35;;;2.67;;
59607;SDS011;45426;44.726;10.390;2023-04-03T03:06:23;5.10;;;2.65;;
59607;SDS011;45426;44.726;10.390;2023-04-03T03:08:49;5.85;;;3.38;;
59607;SDS011;45426;44.726;10.390;2023-04-03T03:11:15;5.25;;;2.72;;
59607;SDS011;45426;44.726;10.390;2023-04-03T03:13:40;5.10;;;2.80;;
59607;SDS011;45426;44.726;10.390;2023-04-03T03:16:06;5.35;;;2.83;;
59607;SDS011;45426;44.726;10.390;2023-04-03T03:18:32;4.97;;;2.80;;
59607;SDS011;45426;44.726;10.390;2023-04-03T03:20:59;4.47;;;2.60;;
59607;SDS011;45426;44.726;10.390;2023-04-03T03:23:26;5.80;;;2.90;;
59607;SDS011;45426;44.726;10.390;2023-04-03T03:25:56;5.85;;;2.60;;
59607;SDS011;45426;44.726;10.390;2023-04-03T03:28:22;4.60;;;2.80;;
59607;SDS011;45426;44.726;10.390;2023-04-03T03:30:47;6.40;;;2.70;;
59607;SDS011;45426;44.726;10.390;2023-04-03T03:33:13;7.22;;;3.25;;
59607;SDS011;45426;44.726;10.390;2023-04-03T03:35:38;6.45;;;3.10;;
59607;SDS011;45426;44.726;10.390;2023-04-03T03:38:03;4.45;;;2.65;;
59607;SDS011;45426;44.726;10.390;2023-04-03T03:40:29;4.65;;;2.90;;
59607;SDS011;45426;44.726;10.390;2023-04-03T03:42:54;4.82;;;2.90;;
59607;SDS011;45426;44.726;10.390;2023-04-03T03:45:20;5.05;;;2.80;;
59607;SDS011;45426;44.726;10.390;2023-04-03T03:47:45;5.28;;;2.67;;
59607;SDS011;45426;44.726;10.390;2023-04-03T03:50:11;5.07;;;2.78;;
59607;SDS011;45426;44.726;10.390;2023-04-03T03:52:36;4.80;;;2.70;;
59607;SDS011;45426;44.726;10.390;2023-04-03T03:55:02;6.38;;;2.97;;
59607;SDS011;45426;44.726;10.390;2023-04-03T03:57:27;6.90;;;3.25;;
59607;SDS011;45426;44.726;10.390;2023-04-03T03:59:53;5.30;;;2.83;;
59607;SDS011;45426;44.726;10.390;2023-04-03T04:02:19;4.40;;;2.65;;
59607;SDS011;45426;44.726;10.390;2023-04-03T04:04:45;5.38;;;3.00;;
59607;SDS011;45426;44.726;10.390;2023-04-03T04:07:10;5.47;;;2.80;;
59607;SDS011;45426;44.726;10.390;2023-04-03T04:09:36;6.20;;;3.15;;
59607;SDS011;45426;44.726;10.390;2023-04-03T04:12:01;5.93;;;3.15;;
59607;SDS011;45426;44.726;10.390;2023-04-03T04:14:27;6.60;;;3.20;;
59607;SDS011;45426;44.726;10.390;2023-04-03T04:16:52;4.35;;;2.85;;
59607;SDS011;45426;44.726;10.390;2023-04-03T04:19:17;6.70;;;3.08;;
59607;SDS011;45426;44.726;10.390;2023-04-03T04:21:43;6.40;;;3.10;;
59607;SDS011;45426;44.726;10.390;2023-04-03T04:24:08;5.10;;;3.00;;
59607;SDS011;45426;44.726;10.390;2023-04-03T04:26:34;4.95;;;2.85;;
59607;SDS011;45426;44.726;10.390;2023-04-03T04:29:00;7.10;;;2.95;;
59607;SDS011;45426;44.726;10.390;2023-04-03T04:31:25;6.15;;;3.22;;
59607;SDS011;45426;44.726;10.390;2023-04-03T04:33:51;5.05;;;2.78;;
59607;SDS011;45426;44.726;10.390;2023-04-03T04:36:17;6.90;;;3.50;;
59607;SDS011;45426;44.726;10.390;2023-04-03T04:38:43;5.85;;;3.05;;
59607;SDS011;45426;44.726;10.390;2023-04-03T04:41:09;7.55;;;3.38;;
59607;SDS011;45426;44.726;10.390;2023-04-03T04:43:35;6.15;;;3.25;;
59607;SDS011;45426;44.726;10.390;2023-04-03T04:46:10;7.97;;;3.42;;
59607;SDS011;45426;44.726;10.390;2023-04-03T04:48:38;6.95;;;3.28;;
59607;SDS011;45426;44.726;10.390;2023-04-03T04:51:03;5.35;;;3.13;;
59607;SDS011;45426;44.726;10.390;2023-04-03T04:53:29;6.47;;;2.90;;
59607;SDS011;45426;44.726;10.390;2023-04-03T04:55:55;5.32;;;2.80;;
59607;SDS011;45426;44.726;10.390;2023-04-03T04:58:20;7.78;;;3.67;;
59607;SDS011;45426;44.726;10.390;2023-04-03T05:00:46;6.97;;;3.10;;
59607;SDS011;45426;44.726;10.390;2023-04-03T05:03:12;8.90;;;3.35;;
59607;SDS011;45426;44.726;10.390;2023-04-03T05:05:38;7.95;;;3.10;;
59607;SDS011;45426;44.726;10.390;2023-04-03T05:08:03;6.78;;;3.17;;
59607;SDS011;45426;44.726;10.390;2023-04-03T05:10:29;5.80;;;3.00;;
59607;SDS011;45426;44.726;10.390;2023-04-03T05:12:56;6.93;;;3.13;;
59607;SDS011;45426;44.726;10.390;2023-04-03T05:15:21;8.85;;;3.30;;
59607;SDS011;45426;44.726;10.390;2023-04-03T05:17:47;7.68;;;3.60;;
59607;SDS011;45426;44.726;10.390;2023-04-03T05:20:12;7.07;;;3.10;;
59607;SDS011;45426;44.726;10.390;2023-04-03T05:22:38;8.10;;;3.47;;
59607;SDS011;45426;44.726;10.390;2023-04-03T05:25:04;7.93;;;3.53;;
59607;SDS011;45426;44.726;10.390;2023-04-03T05:27:31;6.15;;;3.13;;
59607;SDS011;45426;44.726;10.390;2023-04-03T05:29:57;7.80;;;3.58;;
59607;SDS011;45426;44.726;10.390;2023-04-03T05:32:23;8.05;;;3.47;;
59607;SDS011;45426;44.726;10.390;2023-04-03T05:34:51;6.93;;;3.47;;
59607;SDS011;45426;44.726;10.390;2023-04-03T05:37:16;7.03;;;3.28;;
59607;SDS011;45426;44.726;10.390;2023-04-03T05:39:42;6.15;;;3.30;;
59607;SDS011;45426;44.726;10.390;2023-04-03T05:42:07;9.02;;;4.22;;
59607;SDS011;45426;44.726;10.390;2023-04-03T05:44:33;7.47;;;3.97;;
59607;SDS011;45426;44.726;10.390;2023-04-03T05:46:58;8.20;;;4.10;;
59607;SDS011;45426;44.726;10.390;2023-04-03T05:49:24;9.77;;;3.92;;
59607;SDS011;45426;44.726;10.390;2023-04-03T05:51:50;8.45;;;3.95;;
59607;SDS011;45426;44.726;10.390;2023-04-03T05:54:29;7.28;;;3.67;;
59607;SDS011;45426;44.726;10.390;2023-04-03T05:56:55;7.85;;;3.60;;
59607;SDS011;45426;44.726;10.390;2023-04-03T05:59:21;8.38;;;3.58;;
59607;SDS011;45426;44.726;10.390;2023-04-03T06:01:46;8.57;;;3.80;;
59607;SDS011;45426;44.726;10.390;2023-04-03T06:04:13;7.68;;;3.85;;
59607;SDS011;45426;44.726;10.390;2023-04-03T06:06:46;7.55;;;3.63;;
59607;SDS011;45426;44.726;10.390;2023-04-03T06:09:14;8.30;;;3.42;;
59607;SDS011;45426;44.726;10.390;2023-04-03T06:11:41;7.45;;;3.75;;
59607;SDS011;45426;44.726;10.390;2023-04-03T06:14:07;8.60;;;3.83;;
59607;SDS011;45426;44.726;10.390;2023-04-03T06:16:33;9.15;;;3.80;;
59607;SDS011;45426;44.726;10.390;2023-04-03T06:18:59;11.02;;;3.85;;
59607;SDS011;45426;44.726;10.390;2023-04-03T06:21:24;10.55;;;3.83;;
59607;SDS011;45426;44.726;10.390;2023-04-03T06:23:50;9.82;;;3.90;;
59607;SDS011;45426;44.726;10.390;2023-04-03T06:26:16;9.23;;;3.90;;
59607;SDS011;45426;44.726;10.390;2023-04-03T06:28:42;9.55;;;4.13;;
59607;SDS011;45426;44.726;10.390;2023-04-03T06:45:47;9.60;;;4.15;;
59607;SDS011;45426;44.726;10.390;2023-04-03T06:48:13;9.55;;;3.63;;
59607;SDS011;45426;44.726;10.390;2023-04-03T06:50:39;9.07;;;4.60;;
59607;SDS011;45426;44.726;10.390;2023-04-03T06:53:05;10.55;;;3.72;;
59607;SDS011;45426;44.726;10.390;2023-04-03T06:55:31;8.75;;;4.00;;
59607;SDS011;45426;44.726;10.390;2023-04-03T06:57:56;9.77;;;3.90;;
59607;SDS011;45426;44.726;10.390;2023-04-03T07:00:22;10.48;;;3.97;;
59607;SDS011;45426;44.726;10.390;2023-04-03T07:02:47;8.85;;;4.38;;
59607;SDS011;45426;44.726;10.390;2023-04-03T07:05:13;10.25;;;5.00;;
59607;SDS011;45426;44.726;10.390;2023-04-03T07:07:39;13.00;;;4.60;;
59607;SDS011;45426;44.726;10.390;2023-04-03T07:10:05;8.68;;;4.40;;
59607;SDS011;45426;44.726;10.390;2023-04-03T07:12:31;9.10;;;4.55;;
59607;SDS011;45426;44.726;10.390;2023-04-03T07:14:57;10.82;;;5.03;;
59607;SDS011;45426;44.726;10.390;2023-04-03T07:17:23;10.70;;;5.40;;
59607;SDS011;45426;44.726;10.390;2023-04-03T07:19:50;8.98;;;5.45;;
59607;SDS011;45426;44.726;10.390;2023-04-03T07:22:15;8.60;;;5.07;;
59607;SDS011;45426;44.726;10.390;2023-04-03T07:24:41;8.50;;;5.18;;
59607;SDS011;45426;44.726;10.390;2023-04-03T07:27:07;8.38;;;5.53;;
59607;SDS011;45426;44.726;10.390;2023-04-03T07:29:33;10.73;;;5.50;;
59607;SDS011;45426;44.726;10.390;2023-04-03T07:31:59;8.25;;;5.30;;
59607;SDS011;45426;44.726;10.390;2023-04-03T07:34:25;8.32;;;5.53;;
59607;SDS011;45426;44.726;10.390;2023-04-03T07:36:51;8.93;;;5.45;;
59607;SDS011;45426;44.726;10.390;2023-04-03T07:39:16;10.35;;;5.80;;
59607;SDS011;45426;44.726;10.390;2023-04-03T07:41:41;9.77;;;6.10;;
59607;SDS011;45426;44.726;10.390;2023-04-03T07:44:07;7.97;;;5.68;;
59607;SDS011;45426;44.726;10.390;2023-04-03T07:46:35;10.32;;;5.50;;
59607;SDS011;45426;44.726;10.390;2023-04-03T07:49:00;8.52;;;5.72;;
59607;SDS011;45426;44.726;10.390;2023-04-03T07:51:26;8.30;;;5.57;;
59607;SDS011;45426;44.726;10.390;2023-04-03T07:53:53;10.65;;;6.13;;
59607;SDS011;45426;44.726;10.390;2023-04-03T07:56:19;10.45;;;5.50;;
59607;SDS011;45426;44.726;10.390;2023-04-03T07:58:45;9.20;;;5.78;;
59607;SDS011;45426;44.726;10.390;2023-04-03T08:01:11;9.55;;;5.55;;
59607;SDS011;45426;44.726;10.390;2023-04-03T08:03:37;8.50;;;6.15;;
59607;SDS011;45426;44.726;10.390;2023-04-03T08:06:04;8.88;;;6.00;;
59607;SDS011;45426;44.726;10.390;2023-04-03T08:08:32;8.85;;;5.97;;
59607;SDS011;45426;44.726;10.390;2023-04-03T08:10:59;9.52;;;6.22;;
59607;SDS011;45426;44.726;10.390;2023-04-03T08:13:25;8.63;;;5.97;;
59607;SDS011;45426;44.726;10.390;2023-04-03T08:15:51;9.00;;;5.82;;
59607;SDS011;45426;44.726;10.390;2023-04-03T08:18:17;9.68;;;5.97;;
59607;SDS011;45426;44.726;10.390;2023-04-03T08:20:46;9.57;;;6.20;;
59607;SDS011;45426;44.726;10.390;2023-04-03T08:23:12;9.57;;;5.97;;
59607;SDS011;45426;44.726;10.390;2023-04-03T08:25:41;9.55;;;6.57;;
59607;SDS011;45426;44.726;10.390;2023-04-03T08:28:07;10.80;;;6.18;;
59607;SDS011;45426;44.726;10.390;2023-04-03T08:30:33;9.50;;;6.10;;
59607;SDS011;45426;44.726;10.390;2023-04-03T08:33:02;9.57;;;6.05;;
59607;SDS011;45426;44.726;10.390;2023-04-03T08:35:29;10.93;;;6.35;;
59607;SDS011;45426;44.726;10.390;2023-04-03T08:37:54;9.07;;;6.35;;
59607;SDS011;45426;44.726;10.390;2023-04-03T08:40:20;11.02;;;6.55;;
59607;SDS011;45426;44.726;10.390;2023-04-03T08:48:06;9.90;;;6.55;;
59607;SDS011;45426;44.726;10.390;2023-04-03T08:50:38;11.68;;;6.60;;
59607;SDS011;45426;44.726;10.390;2023-04-03T08:53:10;10.45;;;6.88;;
59607;SDS011;45426;44.726;10.390;2023-04-03T08:55:43;12.82;;;7.20;;
59607;SDS011;45426;44.726;10.390;2023-04-03T08:58:12;10.32;;;6.55;;
59607;SDS011;45426;44.726;10.390;2023-04-03T09:00:49;11.60;;;6.72;;
59607;SDS011;45426;44.726;10.390;2023-04-03T09:03:19;13.07;;;7.20;;
59607;SDS011;45426;44.726;10.390;2023-04-03T09:05:51;15.13;;;7.82;;
59607;SDS011;45426;44.726;10.390;2023-04-03T09:08:43;12.25;;;7.30;;
59607;SDS011;45426;44.726;10.390;2023-04-03T09:11:21;12.82;;;7.40;;
59607;SDS011;45426;44.726;10.390;2023-04-03T09:16:37;11.20;;;6.93;;
59607;SDS011;45426;44.726;10.390;2023-04-03T09:21:59;11.43;;;6.88;;
59607;SDS011;45426;44.726;10.390;2023-04-03T09:24:36;10.75;;;6.40;;
59607;SDS011;45426;44.726;10.390;2023-04-03T09:27:06;10.55;;;6.22;;
59607;SDS011;45426;44.726;10.390;2023-04-03T09:29:35;10.98;;;6.30;;
59607;SDS011;45426;44.726;10.390;2023-04-03T09:32:27;11.38;;;6.15;;
59607;SDS011;45426;44.726;10.390;2023-04-03T09:34:56;10.10;;;5.90;;
59607;SDS011;45426;44.726;10.390;2023-04-03T09:37:33;10.05;;;5.00;;
59607;SDS011;45426;44.726;10.390;2023-04-03T09:40:03;9.48;;;4.45;;
59607;SDS011;45426;44.726;10.390;2023-04-03T09:42:30;8.43;;;4.68;;
59607;SDS011;45426;44.726;10.390;2023-04-03T09:45:01;9.27;;;5.40;;
59607;SDS011;45426;44.726;10.390;2023-04-03T09:47:28;12.55;;;6.47;;
59607;SDS011;45426;44.726;10.390;2023-04-03T09:52:54;8.90;;;5.20;;
59607;SDS011;45426;44.726;10.390;2023-04-03T09:55:20;10.75;;;6.28;;
59607;SDS011;45426;44.726;10.390;2023-04-03T09:57:54;8.40;;;4.80;;
59607;SDS011;45426;44.726;10.390;2023-04-03T10:00:25;8.27;;;4.78;;
59607;SDS011;45426;44.726;10.390;2023-04-03T10:02:56;8.57;;;4.32;;
59607;SDS011;45426;44.726;10.390;2023-04-03T10:05:27;9.38;;;4.80;;
59607;SDS011;45426;44.726;10.390;2023-04-03T10:07:52;7.82;;;4.30;;
59607;SDS011;45426;44.726;10.390;2023-04-03T10:13:35;8.20;;;4.35;;
59607;SDS011;45426;44.726;10.390;2023-04-03T10:16:06;7.03;;;4.20;;
59607;SDS011;45426;44.726;10.390;2023-04-03T10:18:44;8.43;;;4.40;;
59607;SDS011;45426;44.726;10.390;2023-04-03T10:24:02;8.23;;;4.88;;
59607;SDS011;45426;44.726;10.390;2023-04-03T10:29:43;8.63;;;4.18;;
59607;SDS011;45426;44.726;10.390;2023-04-03T10:34:53;9.15;;;4.50;;
59607;SDS011;45426;44.726;10.390;2023-04-03T10:37:26;8.23;;;4.20;;
59607;SDS011;45426;44.726;10.390;2023-04-03T10:42:39;8.68;;;4.47;;
59607;SDS011;45426;44.726;10.390;2023-04-03T10:50:34;7.60;;;4.22;;
59607;SDS011;45426;44.726;10.390;2023-04-03T10:56:01;8.20;;;4.43;;
59607;SDS011;45426;44.726;10.390;2023-04-03T10:58:34;7.13;;;3.78;;
59607;SDS011;45426;44.726;10.390;2023-04-03T11:01:14;7.00;;;3.58;;
59607;SDS011;45426;44.726;10.390;2023-04-03T11:03:46;6.43;;;3.50;;
59607;SDS011;45426;44.726;10.390;2023-04-03T11:06:18;6.95;;;3.50;;
59607;SDS011;45426;44.726;10.390;2023-04-03T11:08:50;7.70;;;3.80;;
59607;SDS011;45426;44.726;10.390;2023-04-03T11:11:25;6.32;;;3.40;;
59607;SDS011;45426;44.726;10.390;2023-04-03T11:16:36;8.55;;;3.70;;
59607;SDS011;45426;44.726;10.390;2023-04-03T11:22:33;5.88;;;3.05;;
59607;SDS011;45426;44.726;10.390;2023-04-03T11:24:42;4.85;;;3.20;;
59607;SDS011;45426;44.726;10.390;2023-04-03T11:27:13;6.70;;;3.10;;
59607;SDS011;45426;44.726;10.390;2023-04-03T11:29:47;5.88;;;2.78;;
59607;SDS011;45426;44.726;10.390;2023-04-03T11:32:26;6.53;;;2.60;;
59607;SDS011;45426;44.726;10.390;2023-04-03T11:35:04;3.00;;;2.28;;
59607;SDS011;45426;44.726;10.390;2023-04-03T11:37:38;2.90;;;2.20;;
59607;SDS011;45426;44.726;10.390;2023-04-03T11:42:43;4.78;;;2.40;;
59607;SDS011;45426;44.726;10.390;2023-04-03T11:47:50;3.80;;;2.30;;
59607;SDS011;45426;44.726;10.390;2023-04-03T11:51:01;4.57;;;2.30;;
59607;SDS011;45426;44.726;10.390;2023-04-03T11:58:33;4.38;;;2.50;;
59607;SDS011;45426;44.726;10.390;2023-04-03T12:01:04;4.07;;;2.53;;
59607;SDS011;45426;44.726;10.390;2023-04-03T12:13:39;2.53;;;1.80;;
59607;SDS011;45426;44.726;10.390;2023-04-03T12:16:05;4.65;;;2.03;;
59607;SDS011;45426;44.726;10.390;2023-04-03T12:26:28;4.68;;;1.92;;
59607;SDS011;45426;44.726;10.390;2023-04-03T12:28:58;5.18;;;1.83;;
59607;SDS011;45426;44.726;10.390;2023-04-03T12:31:32;3.17;;;1.70;;
59607;SDS011;45426;44.726;10.390;2023-04-03T12:37:09;5.78;;;2.08;;
59607;SDS011;45426;44.726;10.390;2023-04-03T12:39:57;3.75;;;1.85;;
59607;SDS011;45426;44.726;10.390;2023-04-03T12:42:32;2.70;;;1.80;;
59607;SDS011;45426;44.726;10.390;2023-04-03T12:45:47;3.22;;;1.80;;
59607;SDS011;45426;44.726;10.390;2023-04-03T12:48:17;2.58;;;1.58;;
59607;SDS011;45426;44.726;10.390;2023-04-03T12:50:52;2.03;;;1.83;;
59607;SDS011;45426;44.726;10.390;2023-04-03T12:53:21;4.70;;;2.10;;
59607;SDS011;45426;44.726;10.390;2023-04-03T12:56:44;3.50;;;1.80;;
59607;SDS011;45426;44.726;10.390;2023-04-03T13:01:37;3.90;;;2.10;;
59607;SDS011;45426;44.726;10.390;2023-04-03T13:04:02;3.90;;;2.10;;
59607;SDS011;45426;44.726;10.390;2023-04-03T13:06:38;3.45;;;2.28;;
59607;SDS011;45426;44.726;10.390;2023-04-03T13:09:06;5.30;;;2.40;;
59607;SDS011;45426;44.726;10.390;2023-04-03T13:11:54;6.95;;;3.00;;
59607;SDS011;45426;44.726;10.390;2023-04-03T13:14:27;5.07;;;2.85;;
59607;SDS011;45426;44.726;10.390;2023-04-03T13:19:20;4.35;;;2.22;;
59607;SDS011;45426;44.726;10.390;2023-04-03T13:21:49;5.22;;;1.95;;
59607;SDS011;45426;44.726;10.390;2023-04-03T13:24:21;2.60;;;2.28;;
59607;SDS011;45426;44.726;10.390;2023-04-03T13:26:46;4.25;;;2.45;;
59607;SDS011;45426;44.726;10.390;2023-04-03T13:29:20;7.53;;;3.10;;
59607;SDS011;45426;44.726;10.390;2023-04-03T13:31:57;7.07;;;3.67;;
59607;SDS011;45426;44.726;10.390;2023-04-03T13:34:24;7.65;;;3.67;;
59607;SDS011;45426;44.726;10.390;2023-04-03T13:41:45;9.18;;;3.58;;
59607;SDS011;45426;44.726;10.390;2023-04-03T13:46:50;6.70;;;3.17;;
59607;SDS011;45426;44.726;10.390;2023-04-03T13:50:02;6.07;;;2.83;;
59607;SDS011;45426;44.726;10.390;2023-04-03T13:52:41;5.75;;;2.85;;
59607;SDS011;45426;44.726;10.390;2023-04-03T13:55:27;9.52;;;2.83;;
59607;SDS011;45426;44.726;10.390;2023-04-03T14:00:51;5.95;;;2.50;;
59607;SDS011;45426;44.726;10.390;2023-04-03T14:06:04;7.32;;;2.55;;
59607;SDS011;45426;44.726;10.390;2023-04-03T14:08:33;5.53;;;2.30;;
59607;SDS011;45426;44.726;10.390;2023-04-03T14:11:00;6.43;;;2.20;;
59607;SDS011;45426;44.726;10.390;2023-04-03T14:13:25;6.00;;;2.30;;
59607;SDS011;45426;44.726;10.390;2023-04-03T14:15:50;5.63;;;2.10;;
59607;SDS011;45426;44.726;10.390;2023-04-03T14:18:21;4.80;;;2.35;;
59607;SDS011;45426;44.726;10.390;2023-04-03T14:20:47;5.20;;;2.40;;
59607;SDS011;45426;44.726;10.390;2023-04-03T14:23:16;4.22;;;2.38;;
59607;SDS011;45426;44.726;10.390;2023-04-03T14:25:42;5.07;;;2.30;;
59607;SDS011;45426;44.726;10.390;2023-04-03T14:30:57;4.72;;;2.28;;
59607;SDS011;45426;44.726;10.390;2023-04-03T14:33:23;5.03;;;2.00;;
59607;SDS011;45426;44.726;10.390;2023-04-03T14:35:49;7.75;;;2.20;;
59607;SDS011;45426;44.726;10.390;2023-04-03T14:41:01;4.38;;;2.22;;
59607;SDS011;45426;44.726;10.390;2023-04-03T14:43:27;5.18;;;2.20;;
59607;SDS011;45426;44.726;10.390;2023-04-03T14:45:52;7.22;;;2.35;;
59607;SDS011;45426;44.726;10.390;2023-04-03T14:48:19;4.40;;;2.25;;
59607;SDS011;45426;44.726;10.390;2023-04-03T14:50:47;7.57;;;1.92;;
59607;SDS011;45426;44.726;10.390;2023-04-03T14:53:13;2.10;;;1.60;;
59607;SDS011;45426;44.726;10.390;2023-04-03T14:55:40;6.88;;;2.45;;
59607;SDS011;45426;44.726;10.390;2023-04-03T14:58:17;3.58;;;1.73;;
59607;SDS011;45426;44.726;10.390;2023-04-03T15:00:45;5.93;;;1.90;;
59607;SDS011;45426;44.726;10.390;2023-04-03T15:03:14;3.45;;;1.65;;
59607;SDS011;45426;44.726;10.390;2023-04-03T15:05:45;6.93;;;2.05;;
59607;SDS011;45426;44.726;10.390;2023-04-03T15:10:45;4.55;;;1.38;;
59607;SDS011;45426;44.726;10.390;2023-04-03T15:13:12;1.95;;;1.30;;
59607;SDS011;45426;44.726;10.390;2023-04-03T15:15:38;3.80;;;1.55;;
59607;SDS011;45426;44.726;10.390;2023-04-03T15:18:03;2.92;;;1.40;;
59607;SDS011;45426;44.726;10.390;2023-04-03T15:20:29;2.25;;;1.48;;
59607;SDS011;45426;44.726;10.390;2023-04-03T15:22:59;5.78;;;1.38;;
59607;SDS011;45426;44.726;10.390;2023-04-03T15:25:29;1.88;;;1.33;;
59607;SDS011;45426;44.726;10.390;2023-04-03T15:27:55;2.65;;;1.10;;
59607;SDS011;45426;44.726;10.390;2023-04-03T15:30:21;3.83;;;1.23;;
59607;SDS011;45426;44.726;10.390;2023-04-03T15:32:47;3.00;;;1.30;;
59607;SDS011;45426;44.726;10.390;2023-04-03T15:35:13;1.75;;;1.15;;
59607;SDS011;45426;44.726;10.390;2023-04-03T15:37:40;3.25;;;1.40;;
59607;SDS011;45426;44.726;10.390;2023-04-03T16:29:27;4.82;;;1.25;;
59607;SDS011;45426;44.726;10.390;2023-04-03T16:31:53;2.30;;;1.20;;
59607;SDS011;45426;44.726;10.390;2023-04-03T16:34:18;4.00;;;1.42;;
59607;SDS011;45426;44.726;10.390;2023-04-03T16:36:45;2.67;;;1.38;;
59607;SDS011;45426;44.726;10.390;2023-04-03T16:39:10;4.97;;;1.50;;
59607;SDS011;45426;44.726;10.390;2023-04-03T16:41:36;5.50;;;1.60;;
59607;SDS011;45426;44.726;10.390;2023-04-03T16:44:01;1.83;;;1.48;;
59607;SDS011;45426;44.726;10.390;2023-04-03T16:46:27;5.57;;;1.70;;
59607;SDS011;45426;44.726;10.390;2023-04-03T16:48:53;4.22;;;1.60;;
59607;SDS011;45426;44.726;10.390;2023-04-03T16:51:18;4.07;;;1.63;;
59607;SDS011;45426;44.726;10.390;2023-04-03T16:53:43;3.00;;;1.73;;
59607;SDS011;45426;44.726;10.390;2023-04-03T16:56:09;3.88;;;1.58;;
59607;SDS011;45426;44.726;10.390;2023-04-03T16:58:34;4.45;;;2.10;;
59607;SDS011;45426;44.726;10.390;2023-04-03T17:01:08;6.40;;;2.90;;
59607;SDS011;45426;44.726;10.390;2023-04-03T17:03:34;2.67;;;1.50;;
59607;SDS011;45426;44.726;10.390;2023-04-03T17:06:00;3.33;;;1.85;;
59607;SDS011;45426;44.726;10.390;2023-04-03T17:08:25;7.60;;;2.75;;
59607;SDS011;45426;44.726;10.390;2023-04-03T17:10:51;4.63;;;1.58;;
59607;SDS011;45426;44.726;10.390;2023-04-03T17:13:18;3.25;;;1.30;;
59607;SDS011;45426;44.726;10.390;2023-04-03T17:15:44;5.07;;;1.65;;
59607;SDS011;45426;44.726;10.390;2023-04-03T17:18:12;2.63;;;1.60;;
59607;SDS011;45426;44.726;10.390;2023-04-03T17:20:38;3.78;;;1.63;;
59607;SDS011;45426;44.726;10.390;2023-04-03T17:23:06;4.90;;;1.90;;
59607;SDS011;45426;44.726;10.390;2023-04-03T17:25:31;5.43;;;1.50;;
59607;SDS011;45426;44.726;10.390;2023-04-03T17:27:57;3.50;;;1.60;;